createdAt,value
2022-07-29T00:00:13.723Z,27.44
2022-07-29T00:05:26.613Z,27.38
2022-07-29T00:10:35.003Z,27.35
2022-07-29T00:15:44.016Z,27.33
2022-07-29T00:20:51.721Z,27.28
2022-07-29T00:26:00.636Z,27.25
2022-07-29T00:36:44.655Z,27.19
2022-07-29T00:41:50.889Z,27.19
2022-07-29T00:47:07.333Z,27.17
2022-07-29T00:57:52.997Z,27.11
2022-07-29T01:05:48.131Z,27.05
2022-07-29T01:11:01.857Z,27.04
2022-07-29T01:16:16.307Z,27.04
2022-07-29T01:21:57.839Z,27.04
2022-07-29T01:27:31.848Z,27.02
2022-07-29T01:32:42.613Z,27.01
2022-07-29T01:38:10.281Z,27.00
2022-07-29T01:43:43.954Z,26.97
2022-07-29T01:49:06.191Z,26.93
2022-07-29T01:54:47.421Z,26.92
2022-07-29T01:59:55.191Z,26.89
2022-07-29T02:05:17.387Z,26.90
2022-07-29T02:10:26.694Z,26.88
2022-07-29T02:15:40.139Z,26.85
2022-07-29T02:20:55.964Z,26.80
2022-07-29T02:26:18.830Z,26.72
2022-07-29T02:31:50.584Z,26.65
2022-07-29T02:36:58.667Z,26.63
2022-07-29T02:42:11.714Z,26.56
2022-07-29T02:47:45.058Z,26.48
2022-07-29T02:53:27.980Z,26.43
2022-07-29T03:07:27.998Z,26.38
2022-07-29T03:12:31.320Z,26.37
2022-07-29T03:18:06.887Z,26.33
2022-07-29T03:23:12.149Z,26.32
2022-07-29T03:28:14.172Z,26.31
2022-07-29T03:33:18.246Z,26.32
2022-07-29T03:38:21.667Z,26.33
2022-07-29T03:43:27.019Z,26.32
2022-07-29T03:48:33.034Z,26.32
2022-07-29T03:53:36.559Z,26.30
2022-07-29T03:58:39.984Z,26.29
2022-07-29T04:03:42.044Z,26.26
2022-07-29T04:08:44.174Z,26.25
2022-07-29T04:13:46.183Z,26.23
2022-07-29T04:18:48.385Z,26.21
2022-07-29T04:23:53.689Z,26.19
2022-07-29T04:28:56.038Z,26.18
2022-07-29T04:33:58.643Z,26.15
2022-07-29T04:39:02.037Z,26.11
2022-07-29T04:44:07.217Z,26.08
2022-07-29T04:49:09.713Z,26.02
2022-07-29T04:54:11.798Z,25.99
2022-07-29T04:59:13.803Z,25.98
2022-07-29T05:04:16.132Z,25.92
2022-07-29T05:09:18.537Z,25.88
2022-07-29T05:14:20.752Z,25.86
2022-07-29T05:19:22.918Z,25.89
2022-07-29T05:24:24.927Z,25.91
2022-07-29T05:29:43.122Z,25.99
2022-07-29T05:34:50.387Z,26.02
2022-07-29T05:39:56.595Z,26.05
2022-07-29T05:44:59.457Z,26.08
2022-07-29T05:50:01.570Z,26.13
2022-07-29T05:55:05.424Z,26.20
2022-07-29T06:00:08.465Z,26.27
2022-07-29T06:05:17.252Z,26.34
2022-07-29T06:10:20.171Z,26.42
2022-07-29T06:15:25.975Z,26.45
2022-07-29T06:20:32.274Z,26.49
2022-07-29T06:25:36.550Z,26.54
2022-07-29T06:30:39.219Z,26.59
2022-07-29T06:35:43.191Z,26.67
2022-07-29T06:41:10.715Z,26.75
2022-07-29T06:46:15.746Z,26.84
2022-07-29T06:51:24.157Z,26.92
2022-07-29T06:56:26.305Z,26.97
2022-07-29T07:01:28.403Z,27.03
2022-07-29T07:06:30.682Z,27.18
2022-07-29T07:11:33.029Z,27.34
2022-07-29T07:16:38.890Z,27.51
2022-07-29T07:21:41.518Z,27.69
2022-07-29T07:26:43.605Z,27.89
2022-07-29T07:31:49.419Z,28.13
2022-07-29T07:36:51.551Z,28.33
2022-07-29T07:41:53.840Z,28.42
2022-07-29T07:46:59.919Z,28.61
2022-07-29T07:52:17.900Z,28.74
2022-07-29T07:57:20.121Z,28.85
2022-07-29T08:02:25.600Z,28.90
2022-07-29T08:07:27.631Z,29.01
2022-07-29T08:12:29.747Z,29.07
2022-07-29T08:17:37.008Z,29.19
2022-07-29T08:22:39.044Z,29.21
2022-07-29T08:27:43.825Z,29.19
2022-07-29T08:32:54.827Z,29.21
2022-07-29T08:37:58.035Z,29.17
2022-07-29T08:43:08.770Z,29.11
2022-07-29T08:48:10.750Z,29.04
2022-07-29T08:53:15.345Z,29.02
2022-07-29T08:58:22.900Z,28.99
2022-07-29T09:03:32.141Z,28.97
2022-07-29T09:08:34.594Z,29.08
2022-07-29T09:13:36.920Z,29.04
2022-07-29T09:18:45.364Z,29.06
2022-07-29T09:24:08.879Z,29.11
2022-07-29T09:29:18.117Z,29.25
2022-07-29T09:34:27.995Z,29.43
2022-07-29T09:39:41.201Z,29.71
2022-07-29T09:44:46.533Z,29.93
2022-07-29T09:50:07.332Z,30.01
2022-07-29T09:55:13.588Z,30.21
2022-07-29T10:00:21.584Z,30.39
2022-07-29T10:05:26.069Z,30.53
2022-07-29T10:10:34.875Z,30.65
2022-07-29T10:15:40.189Z,30.79
2022-07-29T10:20:42.728Z,30.83
2022-07-29T10:25:52.505Z,30.79
2022-07-29T10:31:05.327Z,30.80
2022-07-29T10:36:40.232Z,30.92
2022-07-29T10:54:01.302Z,31.00
2022-07-29T10:59:36.357Z,31.05
2022-07-29T11:04:44.527Z,31.23
2022-07-29T11:10:12.848Z,31.36
2022-07-29T11:15:22.410Z,31.44
2022-07-29T11:20:40.735Z,31.54
2022-07-29T11:25:50.616Z,31.33
2022-07-29T11:30:56.341Z,31.08
2022-07-29T11:36:16.872Z,30.84
2022-07-29T11:41:19.147Z,30.68
2022-07-29T11:46:54.743Z,30.66
2022-07-29T11:52:02.861Z,30.64
2022-07-29T11:57:08.548Z,30.46
2022-07-29T12:02:37.231Z,30.29
2022-07-29T12:07:35.599Z,30.14
2022-07-29T12:12:39.796Z,30.01
2022-07-29T12:17:42.324Z,29.94
2022-07-29T12:22:45.379Z,30.01
2022-07-29T12:27:48.594Z,30.20
2022-07-29T12:32:51.436Z,30.28
2022-07-29T12:38:00.236Z,30.33
2022-07-29T12:43:12.760Z,30.28
2022-07-29T12:48:15.870Z,30.10
2022-07-29T12:53:17.960Z,29.94
2022-07-29T12:58:31.182Z,29.75
2022-07-29T13:03:56.886Z,29.53
2022-07-29T13:09:07.692Z,29.49
2022-07-29T13:14:13.315Z,29.35
2022-07-29T13:19:15.343Z,29.25
2022-07-29T13:24:19.910Z,29.12
2022-07-29T13:29:31.748Z,29.10
2022-07-29T13:34:34.058Z,29.24
2022-07-29T13:39:36.236Z,29.38
2022-07-29T13:44:38.392Z,29.49
2022-07-29T13:49:40.555Z,29.48
2022-07-29T13:54:45.921Z,29.49
2022-07-29T13:59:53.451Z,29.42
2022-07-29T14:04:56.446Z,29.44
2022-07-29T14:09:58.743Z,29.32
2022-07-29T14:15:01.185Z,29.44
2022-07-29T14:20:04.007Z,29.55
2022-07-29T14:25:14.722Z,29.67
2022-07-29T14:30:17.503Z,29.74
2022-07-29T14:35:20.382Z,29.74
2022-07-29T14:40:22.564Z,29.71
2022-07-29T14:45:25.389Z,29.74
2022-07-29T14:50:31.207Z,29.72
2022-07-29T14:55:34.307Z,29.62
2022-07-29T15:00:37.992Z,29.54
2022-07-29T15:05:40.220Z,29.53
2022-07-29T15:10:42.390Z,29.50
2022-07-29T15:15:45.564Z,29.44
2022-07-29T15:20:47.818Z,29.40
2022-07-29T15:25:54.916Z,29.33
2022-07-29T15:30:57.225Z,29.33
2022-07-29T15:35:59.341Z,29.32
2022-07-29T15:41:01.684Z,29.29
2022-07-29T15:46:22.193Z,29.27
2022-07-29T15:51:24.356Z,29.24
2022-07-29T15:56:26.719Z,29.21
2022-07-29T16:01:28.813Z,29.05
2022-07-29T16:06:31.011Z,29.01
2022-07-29T16:11:33.654Z,28.96
2022-07-29T16:34:11.250Z,28.84
2022-07-29T16:57:15.452Z,28.78
2022-07-29T17:02:17.793Z,28.82
2022-07-29T17:07:20.903Z,28.84
2022-07-29T17:29:39.547Z,28.84
2022-07-29T17:34:42.735Z,28.94
2022-07-29T17:39:45.073Z,29.03
2022-07-29T17:44:47.283Z,29.05
2022-07-29T17:49:49.977Z,29.06
2022-07-29T17:54:52.154Z,29.01
2022-07-29T17:59:54.307Z,28.97
2022-07-29T18:04:59.366Z,28.86
2022-07-29T18:10:08.196Z,28.74
2022-07-29T18:15:13.191Z,28.66
2022-07-29T18:20:24.144Z,28.58
2022-07-29T18:25:26.722Z,28.52
2022-07-29T18:30:30.303Z,28.50
2022-07-29T18:35:33.302Z,28.48
2022-07-29T18:40:35.559Z,28.45
2022-07-29T18:45:37.783Z,28.40
2022-07-29T18:50:42.351Z,28.38
2022-07-29T18:55:45.009Z,28.35
2022-07-29T19:00:47.167Z,28.33
2022-07-29T19:05:49.608Z,28.30
2022-07-29T19:10:51.671Z,28.27
2022-07-29T19:15:54.047Z,28.25
2022-07-29T19:20:56.407Z,28.22
2022-07-29T19:25:59.623Z,28.19
2022-07-29T19:31:02.363Z,28.17
2022-07-29T19:36:04.661Z,28.14
2022-07-29T19:41:07.235Z,28.10
2022-07-29T19:46:09.318Z,28.00
2022-07-29T19:51:11.377Z,27.87
2022-07-29T19:56:13.475Z,27.80
2022-07-29T20:01:17.567Z,27.78
2022-07-29T20:06:21.604Z,27.70
2022-07-29T20:11:32.453Z,27.73
2022-07-29T20:16:34.450Z,27.70
2022-07-29T20:21:42.389Z,27.67
2022-07-29T20:26:44.479Z,27.57
2022-07-29T20:31:56.148Z,27.56
2022-07-29T20:37:00.528Z,27.59
2022-07-29T20:42:02.778Z,27.59
2022-07-29T20:47:04.882Z,27.54
2022-07-29T20:52:07.115Z,27.56
2022-07-29T20:57:09.498Z,27.60
2022-07-29T21:02:11.675Z,27.61
2022-07-29T21:07:13.711Z,27.66
2022-07-29T21:12:15.671Z,27.67
2022-07-29T21:17:21.215Z,27.65
2022-07-29T21:22:24.665Z,27.64
2022-07-29T21:27:45.598Z,27.64
2022-07-29T21:32:50.938Z,27.63
2022-07-29T21:37:55.604Z,27.60
2022-07-29T21:42:57.904Z,27.55
2022-07-29T21:48:00.112Z,27.50
2022-07-29T21:53:02.283Z,27.50
2022-07-29T21:58:06.722Z,27.51
2022-07-29T22:03:09.031Z,27.49
2022-07-29T22:08:11.263Z,27.48
2022-07-29T22:13:21.549Z,27.46
2022-07-29T22:18:23.499Z,27.45
2022-07-29T22:23:25.609Z,27.46
2022-07-29T22:28:27.702Z,27.41
2022-07-29T22:33:29.669Z,27.38
2022-07-29T22:38:31.759Z,27.35
2022-07-29T22:43:39.665Z,27.30
2022-07-29T22:48:41.731Z,27.28
2022-07-29T22:53:48.328Z,27.27
2022-07-29T22:58:53.463Z,27.28
2022-07-29T23:03:55.631Z,27.25
2022-07-29T23:08:57.710Z,27.21
2022-07-29T23:13:59.713Z,27.16
2022-07-29T23:19:01.791Z,27.15
2022-07-29T23:24:04.171Z,27.14
2022-07-29T23:29:07.910Z,27.13
2022-07-29T23:34:13.128Z,27.12
2022-07-29T23:39:15.314Z,27.09
2022-07-29T23:44:17.296Z,27.09
2022-07-29T23:49:19.356Z,27.06
2022-07-29T23:54:21.571Z,27.05
2022-07-29T23:59:24.794Z,27.03
